Time;durP1;ratioP1;P1;durP2;ratioP2;P2;SDS_P1;SDS_P2;PMS_P1;PMS_P2;Temp;Humidity;BMP_temperature;BMP_pressure;BME280_temperature;BME280_humidity;BME280_pressure;Samples;Min_cycle;Max_cycle;Signal;HPM_P1;HPM_P2
2022/08/11 00:00:05;;;;;;;0.28;0.20;;;17.60;99.90;;;;;;5084518;28;20041;-75
2022/08/11 00:02:37;;;;;;;0.32;0.30;;;17.60;99.90;;;;;;5083988;28;20121;-75
2022/08/11 00:05:11;;;;;;;0.30;0.30;;;17.50;99.90;;;;;;5083501;28;20082;-75
2022/08/11 00:07:53;;;;;;;0.35;0.30;;;17.50;99.90;;;;;;5052108;28;20166;-75
2022/08/11 00:10:29;;;;;;;0.22;0.20;;;17.50;99.90;;;;;;5066394;28;20623;-75
2022/08/11 00:12:56;;;;;;;0.20;0.20;;;17.50;99.90;;;;;;5083478;28;20044;-75
2022/08/11 00:15:25;;;;;;;0.32;0.20;;;17.50;99.90;;;;;;5034916;28;20036;-75
2022/08/11 00:17:57;;;;;;;0.30;0.30;;;17.40;99.90;;;;;;5085108;28;20044;-75
2022/08/11 00:20:32;;;;;;;0.95;0.30;;;17.50;99.90;;;;;;5071630;28;20075;-75
2022/08/11 00:23:24;;;;;;;0.73;0.30;;;17.40;99.90;;;;;;5055099;28;20067;-75
2022/08/11 00:25:51;;;;;;;0.20;0.20;;;17.40;99.90;;;;;;5036913;28;20052;-75
2022/08/11 00:28:27;;;;;;;0.20;0.20;;;17.40;99.90;;;;;;5055029;28;20048;-75
2022/08/11 00:30:55;;;;;;;0.50;0.20;;;17.40;99.90;;;;;;5088623;28;20044;-75
2022/08/11 00:33:29;;;;;;;0.20;0.20;;;17.30;99.90;;;;;;5054713;28;20040;-75
2022/08/11 00:35:58;;;;;;;0.10;0.10;;;17.30;99.90;;;;;;5047805;28;20123;-75
2022/08/11 00:38:28;;;;;;;0.17;0.17;;;17.30;99.90;;;;;;5055272;28;20087;-75
2022/08/11 00:41:05;;;;;;;0.20;0.20;;;17.30;99.90;;;;;;5054279;28;20044;-75
2022/08/11 00:44:09;;;;;;;0.10;0.10;;;17.30;99.90;;;;;;5071900;28;20047;-75
2022/08/11 00:46:41;;;;;;;0.10;0.10;;;17.20;99.90;;;;;;5052839;28;20052;-75
2022/08/11 00:49:36;;;;;;;0.10;0.10;;;17.20;99.90;;;;;;5088304;28;20033;-75
2022/08/11 00:52:21;;;;;;;0.08;0.08;;;17.20;99.90;;;;;;5054436;28;20075;-75
2022/08/11 00:55:32;;;;;;;0.22;0.22;;;17.10;99.90;;;;;;5054415;28;20438;-75
2022/08/11 00:58:54;;;;;;;0.20;0.20;;;17.10;99.90;;;;;;5045126;28;20079;-75
2022/08/11 01:01:32;;;;;;;0.15;0.15;;;17.10;99.90;;;;;;5013752;28;20076;-75
2022/08/11 01:04:33;;;;;;;0.35;0.35;;;16.90;99.90;;;;;;5012990;28;20045;-75
2022/08/11 01:07:17;;;;;;;0.30;0.30;;;16.90;99.90;;;;;;4979944;28;20066;-75
2022/08/11 01:09:52;;;;;;;0.20;0.20;;;16.90;99.90;;;;;;5045567;28;20049;-75
2022/08/11 01:12:48;;;;;;;0.40;0.20;;;17.00;99.90;;;;;;5088311;28;20055;-75
2022/08/11 01:15:52;;;;;;;0.20;0.20;;;16.90;99.90;;;;;;5036555;28;20040;-75
2022/08/11 01:18:27;;;;;;;0.15;0.15;;;16.80;99.90;;;;;;5030337;28;20087;-75
2022/08/11 01:21:19;;;;;;;0.10;0.10;;;16.90;99.90;;;;;;5038467;28;20066;-75
2022/08/11 01:24:01;;;;;;;0.32;0.22;;;16.80;99.90;;;;;;5054386;28;20508;-75
2022/08/11 01:26:38;;;;;;;0.28;0.20;;;16.70;99.90;;;;;;5082896;28;20037;-75
2022/08/11 01:29:07;;;;;;;0.17;0.17;;;16.70;99.90;;;;;;5088344;28;20032;-75
2022/08/11 01:31:39;;;;;;;0.20;0.20;;;16.70;99.90;;;;;;5071417;28;20048;-75
2022/08/11 01:34:42;;;;;;;0.20;0.20;;;16.80;99.90;;;;;;5052844;28;20056;-75
2022/08/11 01:37:20;;;;;;;0.10;0.10;;;16.70;99.90;;;;;;5087092;28;20097;-75
2022/08/11 01:39:52;;;;;;;0.30;0.20;;;16.70;99.90;;;;;;5086335;28;20044;-75
2022/08/11 01:45:38;;;;;;;0.10;0.10;;;16.60;99.90;;;;;;5065833;28;20048;-75
2022/08/11 01:48:13;;;;;;;0.17;0.10;;;16.70;99.90;;;;;;5055076;28;20044;-75
2022/08/11 01:50:46;;;;;;;0.15;0.15;;;16.60;99.90;;;;;;5076339;28;20040;-75
2022/08/11 01:53:17;;;;;;;0.47;0.20;;;16.70;99.90;;;;;;5052005;28;20923;-75
2022/08/11 01:56:09;;;;;;;0.50;0.30;;;16.70;99.90;;;;;;5087122;28;20526;-75
2022/08/11 01:58:47;;;;;;;0.32;0.20;;;16.60;99.90;;;;;;5052611;28;20514;-75
2022/08/11 02:01:43;;;;;;;0.38;0.10;;;16.60;99.90;;;;;;5052988;28;20040;-75
2022/08/11 02:04:24;;;;;;;0.20;0.20;;;16.60;99.90;;;;;;5049600;28;20115;-75
2022/08/11 02:07:12;;;;;;;0.40;0.25;;;16.50;99.90;;;;;;5086133;28;20041;-75
2022/08/11 02:09:46;;;;;;;;;;;16.60;99.90;;;;;;5054119;28;20036;-75
2022/08/11 02:12:47;;;;;;;0.30;0.30;;;16.60;99.90;;;;;;5086322;28;19923;-75
2022/08/11 02:15:41;;;;;;;0.25;0.20;;;16.50;99.90;;;;;;5046973;28;20044;-75
2022/08/11 02:23:38;;;;;;;0.10;0.10;;;16.60;99.90;;;;;;5053038;28;20051;-75
2022/08/11 02:24:15;;;;;;;0.20;0.20;;;16.40;99.90;;;;;;5047839;28;20044;-75
2022/08/11 02:26:47;;;;;;;0.30;0.30;;;16.50;99.90;;;;;;5049119;28;20037;-75
2022/08/11 02:29:44;;;;;;;0.30;0.30;;;16.40;99.90;;;;;;5084125;28;20124;-75
2022/08/11 02:35:27;;;;;;;0.15;0.15;;;16.40;99.90;;;;;;5049015;28;20052;-75
2022/08/11 02:38:14;;;;;;;0.50;0.20;;;16.60;99.90;;;;;;5050588;28;20131;-75
2022/08/11 02:44:08;;;;;;;0.30;0.30;;;16.40;99.90;;;;;;5070412;28;20127;-72
2022/08/11 02:46:52;;;;;;;0.63;0.30;;;16.60;99.90;;;;;;5020690;28;20049;-72
2022/08/11 02:49:55;;;;;;;0.30;0.30;;;16.60;99.90;;;;;;5047262;28;20046;-72
2022/08/11 02:52:59;;;;;;;0.30;0.30;;;16.60;99.90;;;;;;5030565;28;20033;-72
2022/08/11 02:55:54;;;;;;;0.20;0.10;;;16.70;99.90;;;;;;5034505;28;20504;-71
2022/08/11 02:58:41;;;;;;;0.63;0.40;;;16.50;99.90;;;;;;5050242;28;20044;-72
2022/08/11 03:01:16;;;;;;;;;;;16.60;99.90;;;;;;5034091;28;20548;-71
2022/08/11 03:04:04;;;;;;;0.63;0.40;;;16.60;99.90;;;;;;5024377;28;19921;-71
2022/08/11 03:06:59;;;;;;;0.30;0.30;;;16.50;99.90;;;;;;5030599;28;20366;-71
2022/08/11 03:09:41;;;;;;;0.20;0.20;;;16.50;99.90;;;;;;5030345;28;20046;-71
2022/08/11 03:18:37;;;;;;;0.40;0.40;;;16.60;99.90;;;;;;5052065;28;20048;-76
2022/08/11 03:21:38;;;;;;;0.68;0.45;;;16.50;99.90;;;;;;5033811;28;20064;-75
2022/08/11 03:24:41;;;;;;;0.85;0.45;;;16.60;99.90;;;;;;5043030;28;20131;-75
2022/08/11 03:27:13;;;;;;;0.82;0.70;;;16.50;99.90;;;;;;5026495;28;20046;-75
2022/08/11 03:30:01;;;;;;;0.80;0.60;;;16.60;99.90;;;;;;5029469;28;20049;-75
2022/08/11 03:36:04;;;;;;;0.85;0.40;;;16.70;99.90;;;;;;5030050;28;20049;-75
2022/08/11 03:39:01;;;;;;;0.60;0.40;;;16.50;99.90;;;;;;5060887;28;20060;-75
2022/08/11 03:41:58;;;;;;;0.20;0.20;;;16.50;99.90;;;;;;5060986;28;20448;-75
2022/08/11 03:44:58;;;;;;;0.85;0.63;;;16.60;99.90;;;;;;5025528;28;20083;-75
2022/08/11 03:47:54;;;;;;;0.63;0.52;;;16.60;99.90;;;;;;5016623;28;20127;-75
2022/08/11 03:50:31;;;;;;;1.10;0.75;;;16.60;99.90;;;;;;5062418;28;20120;-75
2022/08/11 03:53:19;;;;;;;0.50;0.50;;;16.50;99.90;;;;;;5027086;28;20512;-75
2022/08/11 03:56:18;;;;;;;0.38;0.38;;;16.60;99.90;;;;;;5060716;28;20041;-75
2022/08/11 03:59:16;;;;;;;0.60;0.40;;;16.40;99.90;;;;;;5027514;28;20091;-75
2022/08/11 04:02:06;;;;;;;0.32;0.32;;;16.40;99.90;;;;;;5043874;28;20072;-75
2022/08/11 04:05:03;;;;;;;0.30;0.30;;;16.60;99.90;;;;;;5060597;28;20501;-71
2022/08/11 04:07:40;;;;;;;0.40;0.40;;;16.30;99.90;;;;;;5054191;28;20099;-71
2022/08/11 04:10:34;;;;;;;0.50;0.50;;;16.50;99.90;;;;;;5024619;28;20083;-71
2022/08/11 04:13:40;;;;;;;0.60;0.60;;;16.40;99.90;;;;;;5045141;28;20067;-71
2022/08/11 04:16:29;;;;;;;0.32;0.32;;;16.40;99.90;;;;;;5029755;28;20520;-71
2022/08/11 04:19:42;;;;;;;0.68;0.50;;;16.40;99.90;;;;;;5045119;28;20041;-71
2022/08/11 04:22:33;;;;;;;0.43;0.38;;;16.40;99.90;;;;;;4994817;28;20049;-71
2022/08/11 04:25:18;;;;;;;1.52;0.40;;;16.40;99.90;;;;;;5027772;28;20064;-71
2022/08/11 04:28:09;;;;;;;0.98;0.50;;;16.40;99.90;;;;;;5028332;28;20096;-71
2022/08/11 04:30:57;;;;;;;0.82;0.50;;;16.60;99.90;;;;;;5022965;28;20056;-71
2022/08/11 04:33:37;;;;;;;0.30;0.30;;;16.60;99.90;;;;;;5061846;28;20443;-71
2022/08/11 04:39:42;;;;;;;0.47;0.47;;;16.60;99.90;;;;;;5067128;28;20432;-71
2022/08/11 04:45:41;;;;;;;0.32;0.32;;;16.70;99.90;;;;;;5015026;28;20053;-72
2022/08/11 05:03:36;;;;;;;0.50;0.50;;;16.50;99.90;;;;;;5053923;28;20162;-73
2022/08/11 05:06:34;;;;;;;0.47;0.35;;;16.70;99.90;;;;;;5053815;28;20068;-71
2022/08/11 05:09:24;;;;;;;0.28;0.28;;;16.80;99.90;;;;;;5024557;28;20448;-71
2022/08/11 05:12:28;;;;;;;0.30;0.30;;;16.80;99.90;;;;;;5021877;28;20042;-71
2022/08/11 05:35:47;;;;;;;1.75;0.50;;;16.90;99.90;;;;;;5028498;28;20049;-75
2022/08/11 05:57:58;;;;;;;0.20;0.20;;;17.60;99.90;;;;;;5030860;28;20052;-70
2022/08/11 06:00:24;;;;;;;0.20;0.20;;;17.60;99.90;;;;;;5030826;28;20044;-70
2022/08/11 06:02:56;;;;;;;0.20;0.20;;;17.80;99.90;;;;;;5011659;28;20041;-70
2022/08/11 06:05:22;;;;;;;0.80;0.55;;;17.80;99.90;;;;;;5058870;28;20043;-71
2022/08/11 06:07:52;;;;;;;0.40;0.40;;;17.90;99.90;;;;;;5009384;28;20041;-70
2022/08/11 06:10:29;;;;;;;0.38;0.35;;;18.00;99.90;;;;;;5012923;28;20044;-70
2022/08/11 06:12:56;;;;;;;;;;;18.10;99.90;;;;;;5031747;28;20037;-71
2022/08/11 06:15:23;;;;;;;0.30;0.30;;;18.20;99.90;;;;;;5027740;28;19917;-70
2022/08/11 06:17:50;;;;;;;0.77;0.60;;;18.40;99.90;;;;;;5029536;28;20056;-73
2022/08/11 06:20:18;;;;;;;0.25;0.20;;;18.60;99.90;;;;;;5014844;28;20625;-77
2022/08/11 06:23:02;;;;;;;0.30;0.30;;;18.70;99.90;;;;;;5056382;28;20044;-79
2022/08/11 06:25:36;;;;;;;0.88;0.70;;;18.90;99.90;;;;;;5036901;28;20250;-79
2022/08/11 06:28:06;;;;;;;0.60;0.60;;;19.10;99.90;;;;;;5052327;28;20449;-78
2022/08/11 06:30:38;;;;;;;1.80;0.80;;;19.20;99.90;;;;;;5053400;28;20051;-79
2022/08/11 06:33:14;;;;;;;1.08;0.70;;;19.30;99.90;;;;;;5053208;28;20048;-76
2022/08/11 06:35:47;;;;;;;;;;;19.50;99.90;;;;;;5085853;28;20047;-79
2022/08/11 06:38:25;;;;;;;1.60;0.93;;;19.80;99.90;;;;;;5085164;28;20714;-79
2022/08/11 06:44:15;;;;;;;1.58;0.77;;;20.00;99.90;;;;;;5050777;28;20086;-78
2022/08/11 06:46:46;;;;;;;1.58;1.00;;;20.10;99.90;;;;;;5053243;28;20036;-78
2022/08/11 06:52:06;;;;;;;1.25;0.90;;;20.40;99.90;;;;;;5086204;28;20048;-78
2022/08/11 06:54:35;;;;;;;1.65;0.90;;;20.60;99.90;;;;;;5086852;28;20068;-79
2022/08/11 07:02:37;;;;;;;1.95;0.90;;;21.10;99.90;;;;;;5086910;28;20048;-78
2022/08/11 07:05:24;;;;;;;1.10;0.80;;;21.30;99.90;;;;;;5052914;28;20388;-78
2022/08/11 07:17:09;;;;;;;1.15;0.90;;;22.10;99.90;;;;;;5086679;28;20484;-77
2022/08/11 07:30:48;;;;;;;0.90;0.63;;;23.60;99.90;;;;;;5086581;28;20439;-71
2022/08/11 07:33:21;;;;;;;0.70;0.70;;;24.00;99.90;;;;;;5086402;28;20051;-71
2022/08/11 07:35:54;;;;;;;1.60;0.70;;;24.70;99.90;;;;;;5086525;28;20032;-71
2022/08/11 07:38:43;;;;;;;1.40;0.70;;;24.90;99.90;;;;;;5052803;28;20456;-71
2022/08/11 07:41:17;;;;;;;1.50;0.60;;;25.20;99.90;;;;;;5052575;28;20044;-71
2022/08/11 07:43:49;;;;;;;0.95;0.70;;;25.30;99.30;;;;;;5038568;28;20045;-71
2022/08/11 07:54:34;;;;;;;1.60;0.70;;;25.70;98.00;;;;;;5051552;28;20040;-75
2022/08/11 07:57:01;;;;;;;2.13;0.85;;;26.00;97.20;;;;;;5035798;28;20048;-71
2022/08/11 08:18:44;;;;;;;0.43;0.43;;;26.60;96.20;;;;;;5032719;28;20439;-72
2022/08/11 08:21:14;;;;;;;0.40;0.40;;;26.20;95.40;;;;;;5048943;28;20048;-71
2022/08/11 08:23:45;;;;;;;0.95;0.55;;;26.10;96.30;;;;;;5065551;28;20132;-71
2022/08/11 08:31:49;;;;;;;0.30;0.30;;;26.50;96.00;;;;;;5032558;28;20407;-71
2022/08/11 08:34:16;;;;;;;0.88;0.60;;;26.60;97.50;;;;;;5081414;28;20040;-71
2022/08/11 08:36:47;;;;;;;0.80;0.60;;;26.60;97.00;;;;;;5052869;28;20063;-71
2022/08/11 08:39:15;;;;;;;0.63;0.40;;;26.90;95.00;;;;;;5068731;28;20052;-71
2022/08/11 08:41:43;;;;;;;0.57;0.50;;;27.00;95.60;;;;;;5055910;28;20080;-71
2022/08/11 08:44:11;;;;;;;0.40;0.40;;;27.20;95.50;;;;;;5056288;28;20045;-72
2022/08/11 08:46:43;;;;;;;0.40;0.40;;;27.40;95.50;;;;;;5039631;28;20078;-71
2022/08/11 08:49:15;;;;;;;1.02;0.45;;;27.40;96.40;;;;;;5056126;28;20051;-72
2022/08/11 08:51:42;;;;;;;0.77;0.50;;;27.70;94.80;;;;;;5056119;28;20087;-72
2022/08/11 08:54:21;;;;;;;1.65;0.57;;;27.80;94.60;;;;;;5056237;28;20050;-72
2022/08/11 08:56:53;;;;;;;0.50;0.30;;;28.10;94.80;;;;;;5055714;28;20076;-71
2022/08/11 08:59:23;;;;;;;1.30;0.50;;;28.10;95.20;;;;;;5039475;28;20105;-71
2022/08/11 09:02:00;;;;;;;0.40;0.32;;;28.20;94.70;;;;;;5055783;28;20044;-71
2022/08/11 09:04:27;;;;;;;0.63;0.47;;;28.30;94.40;;;;;;5055753;28;20037;-71
2022/08/11 09:06:57;;;;;;;0.77;0.45;;;28.20;96.10;;;;;;5056179;28;20040;-70
2022/08/11 09:09:23;;;;;;;0.32;0.30;;;28.30;94.50;;;;;;5055591;28;20039;-71
2022/08/11 09:11:49;;;;;;;0.50;0.40;;;28.60;93.60;;;;;;5055718;28;20419;-71
2022/08/11 09:17:26;;;;;;;0.40;0.30;;;29.10;93.40;;;;;;5055674;28;20557;-71
2022/08/11 09:19:59;;;;;;;0.68;0.40;;;29.10;93.40;;;;;;5055897;28;20040;-71
2022/08/11 09:28:03;;;;;;;1.00;0.40;;;29.60;92.10;;;;;;5055590;28;20051;-71
2022/08/11 09:30:30;;;;;;;0.70;0.50;;;29.40;93.10;;;;;;5055668;28;20078;-71
2022/08/11 09:33:00;;;;;;;0.35;0.35;;;29.40;91.60;;;;;;5055536;28;20048;-71
2022/08/11 09:35:31;;;;;;;0.40;0.40;;;29.50;91.50;;;;;;5038690;28;20056;-71
2022/08/11 09:40:49;;;;;;;0.40;0.40;;;29.90;90.50;;;;;;5088783;28;20055;-71
2022/08/11 09:46:02;;;;;;;0.50;0.40;;;30.20;90.90;;;;;;5088659;28;20513;-71
2022/08/11 09:48:34;;;;;;;0.73;0.40;;;30.50;90.50;;;;;;5038130;28;20114;-71
2022/08/11 09:51:01;;;;;;;0.50;0.40;;;30.50;87.80;;;;;;5054516;28;20048;-73
2022/08/11 09:53:32;;;;;;;1.10;0.50;;;30.30;89.90;;;;;;5054688;28;20518;-71
2022/08/11 09:58:12;;;;;;;0.80;0.50;;;30.30;89.50;;;;;;5055090;28;20484;-71
2022/08/11 09:58:45;;;;;;;0.40;0.40;;;30.40;90.00;;;;;;5055343;28;20136;-71
2022/08/11 10:01:25;;;;;;;0.45;0.35;;;30.50;89.60;;;;;;5054354;28;20040;-71
2022/08/11 10:03:58;;;;;;;0.82;0.73;;;30.20;91.40;;;;;;5054903;28;20099;-72
2022/08/11 10:09:11;;;;;;;0.93;0.80;;;29.70;89.60;;;;;;5054711;28;20437;-71
2022/08/11 10:11:39;;;;;;;1.77;0.90;;;29.70;91.90;;;;;;5055075;28;20052;-75
2022/08/11 10:16:51;;;;;;;0.70;0.70;;;29.90;88.40;;;;;;5054882;28;20385;-72
2022/08/11 10:19:20;;;;;;;2.38;0.60;;;29.90;88.10;;;;;;5053580;28;20048;-72
2022/08/11 10:27:20;;;;;;;0.60;0.60;;;30.50;85.20;;;;;;5087891;28;20099;-70
2022/08/11 10:35:19;;;;;;;0.40;0.40;;;31.00;83.30;;;;;;5087896;28;20097;-71
2022/08/11 10:37:46;;;;;;;0.60;0.40;;;31.00;82.00;;;;;;5087919;28;20051;-71
2022/08/11 10:40:17;;;;;;;0.43;0.40;;;31.10;82.40;;;;;;5054174;28;20053;-72
2022/08/11 10:43:02;;;;;;;0.47;0.47;;;31.20;82.60;;;;;;5054560;28;20041;-71
2022/08/11 10:48:26;;;;;;;2.00;0.57;;;31.40;84.20;;;;;;5054101;28;20457;-71
2022/08/11 10:51:12;;;;;;;0.50;0.40;;;31.60;82.60;;;;;;5037655;28;20094;-71
2022/08/11 10:59:22;;;;;;;0.43;0.40;;;31.90;84.50;;;;;;5087604;28;20494;-72
2022/08/11 11:01:51;;;;;;;0.70;0.50;;;31.80;82.80;;;;;;5054086;28;20436;-72
2022/08/11 11:04:21;;;;;;;0.50;0.50;;;31.70;80.70;;;;;;5052944;28;20127;-71
2022/08/11 11:07:28;;;;;;;0.93;0.50;;;31.80;82.60;;;;;;5053158;28;20453;-71
2022/08/11 11:10:01;;;;;;;0.68;0.55;;;31.90;81.90;;;;;;5047788;28;20131;-72
2022/08/11 11:18:20;;;;;;;0.73;0.40;;;31.80;80.90;;;;;;5052778;28;20126;-71
2022/08/11 11:21:06;;;;;;;0.82;0.50;;;32.10;80.20;;;;;;5086760;28;20064;-71
2022/08/11 11:23:31;;;;;;;;;;;32.10;80.60;;;;;;5053759;28;20052;-71
2022/08/11 11:26:09;;;;;;;0.63;0.50;;;32.30;80.10;;;;;;5086879;28;19923;-71
2022/08/11 11:28:50;;;;;;;0.40;0.40;;;32.40;79.80;;;;;;5053086;28;20105;-71
2022/08/11 11:31:39;;;;;;;0.80;0.43;;;32.40;79.40;;;;;;5052511;28;20127;-72
2022/08/11 11:34:23;;;;;;;0.45;0.45;;;32.30;80.50;;;;;;5052999;28;20131;-72
2022/08/11 11:36:49;;;;;;;0.43;0.32;;;32.30;78.20;;;;;;5036825;28;20159;-72
2022/08/11 11:39:23;;;;;;;0.40;0.40;;;32.50;77.90;;;;;;5052498;28;20055;-72
2022/08/11 11:41:55;;;;;;;1.05;0.40;;;32.50;78.30;;;;;;5067815;28;20052;-72
2022/08/11 11:44:22;;;;;;;0.55;0.40;;;32.60;78.80;;;;;;5052376;28;20450;-72
2022/08/11 11:46:48;;;;;;;0.68;0.50;;;32.70;77.30;;;;;;5052600;28;20527;-72
2022/08/11 11:49:17;;;;;;;0.40;0.40;;;32.70;76.00;;;;;;5052676;28;20123;-72
2022/08/11 11:51:49;;;;;;;0.75;0.50;;;32.70;78.60;;;;;;5071206;28;20040;-72
2022/08/11 11:54:15;;;;;;;0.65;0.50;;;32.50;79.00;;;;;;5036563;28;20153;-72
2022/08/11 11:56:42;;;;;;;0.98;0.70;;;32.60;77.80;;;;;;5052598;28;20048;-72
2022/08/11 12:01:56;;;;;;;0.73;0.70;;;32.50;78.80;;;;;;5086273;28;20043;-72
2022/08/11 12:04:22;;;;;;;1.02;0.73;;;32.40;77.60;;;;;;5065063;28;20385;-72
2022/08/11 12:06:49;;;;;;;1.60;0.80;;;32.50;79.40;;;;;;5048228;28;20117;-72
2022/08/11 12:09:17;;;;;;;0.82;0.70;;;32.40;77.90;;;;;;5052344;28;20036;-71
2022/08/11 12:14:29;;;;;;;0.60;0.60;;;32.50;76.60;;;;;;5086127;28;20119;-72
2022/08/11 12:16:56;;;;;;;0.47;0.43;;;32.60;77.10;;;;;;5090536;28;20439;-71
2022/08/11 12:19:25;;;;;;;1.13;0.60;;;32.70;76.50;;;;;;5090466;28;20058;-72
2022/08/11 12:27:24;;;;;;;0.43;0.40;;;32.60;77.40;;;;;;5088472;28;20056;-72
2022/08/11 12:29:59;;;;;;;0.65;0.40;;;32.70;76.60;;;;;;5039814;28;20041;-72
2022/08/11 12:32:28;;;;;;;0.37;0.37;;;33.00;76.30;;;;;;5054953;28;20044;-72
2022/08/11 12:34:56;;;;;;;0.30;0.30;;;33.10;75.50;;;;;;5067704;28;20279;-72
2022/08/11 12:37:28;;;;;;;0.38;0.35;;;33.20;75.10;;;;;;5056032;28;20084;-72
2022/08/11 12:45:31;;;;;;;0.45;0.30;;;33.30;75.20;;;;;;5053822;28;20438;-72
2022/08/11 12:53:43;;;;;;;0.30;0.30;;;33.50;75.40;;;;;;5089307;28;20049;-71
2022/08/11 13:07:13;;;;;;;0.70;0.60;;;33.00;74.80;;;;;;5055266;28;20475;-72
2022/08/11 13:09:40;;;;;;;0.60;0.47;;;33.00;74.60;;;;;;5055474;28;20040;-72
2022/08/11 13:14:50;;;;;;;0.80;0.60;;;32.80;74.70;;;;;;5089570;28;20103;-72
2022/08/11 13:17:20;;;;;;;0.70;0.60;;;32.60;75.20;;;;;;5056190;28;20455;-72
2022/08/11 13:19:47;;;;;;;0.52;0.50;;;32.60;75.50;;;;;;5055520;28;20371;-72
2022/08/11 13:22:16;;;;;;;0.98;0.50;;;32.60;74.70;;;;;;5054465;28;20063;-72
2022/08/11 13:24:43;;;;;;;1.70;0.65;;;32.70;75.40;;;;;;5055073;28;20072;-72
2022/08/11 13:27:11;;;;;;;0.70;0.57;;;32.70;75.90;;;;;;5055035;28;20052;-71
2022/08/11 13:29:40;;;;;;;0.45;0.43;;;32.70;74.00;;;;;;5054431;28;20114;-71
2022/08/11 13:32:07;;;;;;;1.00;0.43;;;32.80;73.90;;;;;;5055184;28;20041;-71
2022/08/11 13:34:40;;;;;;;1.00;0.60;;;32.90;75.70;;;;;;5071825;28;20127;-72
2022/08/11 13:37:07;;;;;;;0.50;0.50;;;32.80;73.70;;;;;;5038876;28;20063;-72
2022/08/11 13:39:35;;;;;;;0.57;0.50;;;32.90;73.50;;;;;;5088437;28;20048;-72
2022/08/11 13:42:03;;;;;;;0.75;0.60;;;33.00;73.50;;;;;;5054695;28;20051;-71
2022/08/11 13:44:31;;;;;;;0.50;0.50;;;33.10;73.00;;;;;;5052432;28;20045;-71
2022/08/11 13:47:02;;;;;;;0.20;0.20;;;33.00;73.10;;;;;;5054519;28;20123;-72
2022/08/11 13:49:36;;;;;;;0.30;0.30;;;33.10;72.10;;;;;;5053896;28;20043;-72
2022/08/11 13:52:03;;;;;;;0.30;0.30;;;33.10;72.90;;;;;;5073593;28;20113;-71
2022/08/11 13:54:37;;;;;;;0.52;0.30;;;33.20;73.70;;;;;;5052800;28;20621;-71
2022/08/11 13:57:05;;;;;;;1.08;0.57;;;33.00;72.20;;;;;;5034004;28;20048;-71
2022/08/11 13:59:32;;;;;;;0.57;0.50;;;32.70;71.60;;;;;;5053769;28;20115;-72
2022/08/11 14:02:04;;;;;;;0.50;0.50;;;32.80;71.50;;;;;;5070358;28;20070;-72
2022/08/11 14:04:54;;;;;;;0.68;0.50;;;32.70;72.30;;;;;;5053952;28;20059;-72
2022/08/11 14:07:22;;;;;;;0.45;0.32;;;32.50;71.60;;;;;;5050838;28;20044;-72
2022/08/11 14:09:52;;;;;;;1.70;0.40;;;32.50;72.80;;;;;;5055374;28;20070;-72
2022/08/11 14:15:21;;;;;;;0.50;0.40;;;32.50;72.30;;;;;;5087796;28;20064;-71
2022/08/11 14:18:03;;;;;;;0.40;0.40;;;32.70;73.30;;;;;;5087765;28;20090;-71
2022/08/11 14:22:05;;;;;;;0.38;0.35;;;32.80;73.00;;;;;;5037130;28;20494;-72
2022/08/11 14:23:31;;;;;;;0.50;0.50;;;32.90;72.60;;;;;;5053802;28;20052;-72
2022/08/11 14:28:43;;;;;;;0.73;0.50;;;32.70;71.50;;;;;;5087875;28;20082;-72
2022/08/11 14:31:09;;;;;;;0.60;0.40;;;32.70;72.70;;;;;;5038046;28;20032;-72
2022/08/11 14:33:36;;;;;;;1.33;0.70;;;32.50;71.80;;;;;;5087792;28;20515;-71
2022/08/11 14:36:05;;;;;;;0.80;0.55;;;32.50;71.80;;;;;;5054369;28;20048;-72
2022/08/11 14:38:33;;;;;;;0.82;0.47;;;32.40;72.50;;;;;;5070127;28;20060;-72
2022/08/11 14:49:15;;;;;;;0.63;0.40;;;32.10;73.50;;;;;;5053865;28;20068;-72
2022/08/11 14:51:41;;;;;;;0.90;0.70;;;32.10;74.00;;;;;;5050906;28;20476;-72
2022/08/11 14:56:55;;;;;;;0.80;0.45;;;31.90;74.20;;;;;;5038036;28;20052;-73
2022/08/11 14:59:22;;;;;;;1.13;0.80;;;31.90;73.40;;;;;;5057469;28;20139;-72
2022/08/11 15:04:32;;;;;;;0.80;0.50;;;31.50;73.90;;;;;;5047686;28;20144;-71
2022/08/11 15:06:58;;;;;;;0.88;0.60;;;31.50;74.20;;;;;;5052734;28;20051;-72
2022/08/11 15:09:24;;;;;;;0.50;0.43;;;31.50;73.70;;;;;;5034986;28;20048;-72
2022/08/11 15:12:15;;;;;;;0.77;0.60;;;31.40;73.50;;;;;;5051362;28;20036;-72
2022/08/11 15:17:32;;;;;;;0.57;0.40;;;31.40;74.10;;;;;;5068199;28;20056;-73
2022/08/11 15:25:38;;;;;;;0.60;0.60;;;31.10;73.70;;;;;;5068544;28;20060;-72
2022/08/11 15:39:26;;;;;;;0.70;0.60;;;30.40;74.40;;;;;;5083371;28;20052;-73
2022/08/11 15:47:56;;;;;;;1.50;0.70;;;29.90;74.20;;;;;;5050530;28;20048;-72
2022/08/11 15:50:28;;;;;;;1.13;0.68;;;29.90;74.70;;;;;;5080063;28;20041;-72
2022/08/11 15:53:06;;;;;;;1.65;0.75;;;29.90;74.90;;;;;;5048893;28;20502;-72
2022/08/11 15:55:34;;;;;;;1.20;0.63;;;29.90;75.00;;;;;;5051287;28;20048;-72
2022/08/11 16:04:11;;;;;;;1.50;0.90;;;29.80;76.20;;;;;;5075180;28;20110;-75
2022/08/11 16:06:59;;;;;;;1.55;0.80;;;29.60;75.20;;;;;;5051181;28;20159;-75
2022/08/11 16:09:28;;;;;;;1.48;0.80;;;29.30;75.50;;;;;;5051946;28;20140;-75
2022/08/11 16:11:59;;;;;;;1.25;0.90;;;29.20;75.90;;;;;;5086848;28;20381;-75
2022/08/11 16:17:12;;;;;;;;;;;28.90;75.90;;;;;;5066955;28;20582;-74
2022/08/11 16:19:41;;;;;;;1.83;1.02;;;28.80;76.10;;;;;;5084019;28;19921;-74
2022/08/11 16:22:10;;;;;;;1.45;0.88;;;28.80;76.70;;;;;;5080385;28;20117;-74
2022/08/11 16:24:43;;;;;;;1.15;0.90;;;28.70;76.10;;;;;;5050528;28;20052;-74
2022/08/11 16:27:12;;;;;;;1.52;1.00;;;28.50;76.30;;;;;;5044671;28;20041;-72
2022/08/11 16:29:42;;;;;;;1.60;0.75;;;28.50;76.90;;;;;;5051992;28;20037;-72
2022/08/11 16:32:17;;;;;;;0.80;0.80;;;28.40;76.80;;;;;;5052523;28;20048;-72
2022/08/11 16:40:41;;;;;;;1.58;1.00;;;28.00;77.30;;;;;;5083994;28;20400;-73
2022/08/11 16:48:45;;;;;;;1.33;0.80;;;27.90;77.60;;;;;;5084345;28;20048;-72
2022/08/11 16:51:12;;;;;;;1.25;0.88;;;27.80;77.10;;;;;;5050847;28;20507;-70
2022/08/11 16:53:39;;;;;;;1.35;0.98;;;27.70;77.10;;;;;;5050363;28;20101;-69
2022/08/11 16:56:07;;;;;;;1.50;0.90;;;27.60;77.70;;;;;;5050702;28;20051;-70
2022/08/11 17:01:21;;;;;;;2.83;0.80;;;27.50;77.80;;;;;;5083113;28;20040;-70
2022/08/11 17:18:05;;;;;;;0.95;0.73;;;27.10;79.30;;;;;;5055692;28;20059;-71
2022/08/11 17:20:32;;;;;;;1.70;0.95;;;27.00;80.00;;;;;;5054822;28;20048;-71
2022/08/11 17:25:47;;;;;;;1.20;0.90;;;27.00;80.10;;;;;;5052830;28;20612;-70
2022/08/11 17:28:15;;;;;;;1.65;0.90;;;26.90;80.50;;;;;;5069143;28;20040;-72
2022/08/11 17:36:14;;;;;;;1.58;0.70;;;26.70;81.50;;;;;;5088455;28;20044;-72
2022/08/11 17:38:41;;;;;;;0.77;0.70;;;26.70;81.90;;;;;;5088144;28;20119;-72
2022/08/11 17:49:25;;;;;;;0.57;0.50;;;26.60;82.90;;;;;;5052352;28;20044;-70
2022/08/11 18:00:08;;;;;;;2.20;0.88;;;27.10;82.60;;;;;;5077652;28;20487;-71
2022/08/11 18:05:32;;;;;;;2.75;0.60;;;27.00;81.90;;;;;;5083061;28;20070;-70
